Terminal Aerodrome Forecast
Issued by NWS Paducah, KY

Home | Current Version | Previous Version | Text Only | Print | Product List | Glossary Off
Versions: 1 2 3 4 5 6 7 8 9 10 11 12 13 14 15 16

000
FTUS43 KPAH 280520
TAFPAH
TAF
KPAH 280520Z 2806/2906 00000KT P6SM FEW040 SCT080
      TEMPO 2809/2813 5SM BR
     FM281400 25006KT P6SM SCT040 BKN150
     FM290100 00000KT P6SM FEW060=

USA.gov is the U.S. government's official web portal to all federal, state and local government web resources and services.